sensor_id;sensor_type;location;lat;lon;timestamp;temperature;humidity
16732;DHT22;8484;50.904;9.192;2022-11-25T00:00:35;2.60;99.90
16732;DHT22;8484;50.904;9.192;2022-11-25T00:03:21;2.80;99.90
16732;DHT22;8484;50.904;9.192;2022-11-25T00:06:08;2.80;99.90
16732;DHT22;8484;50.904;9.192;2022-11-25T00:08:55;2.80;99.90
16732;DHT22;8484;50.904;9.192;2022-11-25T00:11:42;2.80;99.90
16732;DHT22;8484;50.904;9.192;2022-11-25T00:14:28;2.70;99.90
16732;DHT22;8484;50.904;9.192;2022-11-25T00:17:13;2.60;99.90
16732;DHT22;8484;50.904;9.192;2022-11-25T00:19:59;2.50;99.90
16732;DHT22;8484;50.904;9.192;2022-11-25T00:22:47;2.40;99.90
16732;DHT22;8484;50.904;9.192;2022-11-25T00:25:33;3.50;99.90
16732;DHT22;8484;50.904;9.192;2022-11-25T00:28:19;2.50;99.90
16732;DHT22;8484;50.904;9.192;2022-11-25T00:31:06;2.70;99.90
16732;DHT22;8484;50.904;9.192;2022-11-25T00:33:52;2.70;99.90
16732;DHT22;8484;50.904;9.192;2022-11-25T00:36:38;2.80;99.90
16732;DHT22;8484;50.904;9.192;2022-11-25T00:39:23;3.00;99.90
16732;DHT22;8484;50.904;9.192;2022-11-25T00:42:10;3.40;99.90
16732;DHT22;8484;50.904;9.192;2022-11-25T00:45:14;3.80;99.90
16732;DHT22;8484;50.904;9.192;2022-11-25T00:47:59;4.10;99.90
16732;DHT22;8484;50.904;9.192;2022-11-25T00:50:45;4.20;99.90
16732;DHT22;8484;50.904;9.192;2022-11-25T00:53:30;4.40;99.90
16732;DHT22;8484;50.904;9.192;2022-11-25T00:56:16;4.30;99.90
16732;DHT22;8484;50.904;9.192;2022-11-25T00:59:04;3.80;99.90
16732;DHT22;8484;50.904;9.192;2022-11-25T01:01:51;3.80;99.90
16732;DHT22;8484;50.904;9.192;2022-11-25T01:04:37;3.50;99.90
16732;DHT22;8484;50.904;9.192;2022-11-25T01:07:22;3.40;99.90
16732;DHT22;8484;50.904;9.192;2022-11-25T01:10:08;3.20;99.90
16732;DHT22;8484;50.904;9.192;2022-11-25T01:12:54;2.70;99.90
16732;DHT22;8484;50.904;9.192;2022-11-25T01:15:39;2.50;99.90
16732;DHT22;8484;50.904;9.192;2022-11-25T01:18:26;2.30;99.90
16732;DHT22;8484;50.904;9.192;2022-11-25T01:21:13;2.40;99.90
16732;DHT22;8484;50.904;9.192;2022-11-25T01:24:00;2.40;99.90
16732;DHT22;8484;50.904;9.192;2022-11-25T01:26:45;2.50;99.90
16732;DHT22;8484;50.904;9.192;2022-11-25T01:29:31;2.40;99.90
16732;DHT22;8484;50.904;9.192;2022-11-25T01:32:16;2.50;99.90
16732;DHT22;8484;50.904;9.192;2022-11-25T01:35:04;2.60;99.90
16732;DHT22;8484;50.904;9.192;2022-11-25T01:37:50;2.50;99.90
16732;DHT22;8484;50.904;9.192;2022-11-25T01:40:35;2.60;99.90
16732;DHT22;8484;50.904;9.192;2022-11-25T01:43:21;2.70;99.90
16732;DHT22;8484;50.904;9.192;2022-11-25T01:46:14;2.80;99.90
16732;DHT22;8484;50.904;9.192;2022-11-25T01:49:06;2.80;99.90
16732;DHT22;8484;50.904;9.192;2022-11-25T01:51:57;2.70;99.90
16732;DHT22;8484;50.904;9.192;2022-11-25T01:54:46;2.90;99.90
16732;DHT22;8484;50.904;9.192;2022-11-25T01:57:36;3.00;99.90
16732;DHT22;8484;50.904;9.192;2022-11-25T02:00:23;2.90;99.90
16732;DHT22;8484;50.904;9.192;2022-11-25T02:03:09;2.80;99.90
16732;DHT22;8484;50.904;9.192;2022-11-25T02:05:59;2.70;99.90
16732;DHT22;8484;50.904;9.192;2022-11-25T02:08:50;2.50;99.90
16732;DHT22;8484;50.904;9.192;2022-11-25T02:11:38;2.50;99.90
16732;DHT22;8484;50.904;9.192;2022-11-25T02:14:27;2.70;99.90
16732;DHT22;8484;50.904;9.192;2022-11-25T02:17:12;2.70;99.90
16732;DHT22;8484;50.904;9.192;2022-11-25T02:20:00;2.60;99.90
16732;DHT22;8484;50.904;9.192;2022-11-25T02:22:54;2.40;99.90
16732;DHT22;8484;50.904;9.192;2022-11-25T02:25:42;2.30;99.90
16732;DHT22;8484;50.904;9.192;2022-11-25T02:28:30;2.30;99.90
16732;DHT22;8484;50.904;9.192;2022-11-25T02:31:18;2.30;99.90
16732;DHT22;8484;50.904;9.192;2022-11-25T02:34:04;2.50;99.90
16732;DHT22;8484;50.904;9.192;2022-11-25T02:36:49;2.40;99.90
16732;DHT22;8484;50.904;9.192;2022-11-25T02:39:35;2.40;99.90
16732;DHT22;8484;50.904;9.192;2022-11-25T02:42:23;2.40;99.90
16732;DHT22;8484;50.904;9.192;2022-11-25T02:45:12;2.40;99.90
16732;DHT22;8484;50.904;9.192;2022-11-25T02:47:59;2.40;99.90
16732;DHT22;8484;50.904;9.192;2022-11-25T02:50:45;2.40;99.90
16732;DHT22;8484;50.904;9.192;2022-11-25T02:53:30;2.60;99.90
16732;DHT22;8484;50.904;9.192;2022-11-25T02:56:17;2.60;99.90
16732;DHT22;8484;50.904;9.192;2022-11-25T02:59:05;2.80;99.90
16732;DHT22;8484;50.904;9.192;2022-11-25T03:01:50;3.00;99.90
16732;DHT22;8484;50.904;9.192;2022-11-25T03:04:36;3.10;99.90
16732;DHT22;8484;50.904;9.192;2022-11-25T03:07:22;3.00;99.90
16732;DHT22;8484;50.904;9.192;2022-11-25T03:10:08;2.80;99.90
16732;DHT22;8484;50.904;9.192;2022-11-25T03:12:53;3.00;99.90
16732;DHT22;8484;50.904;9.192;2022-11-25T03:15:40;3.00;99.90
16732;DHT22;8484;50.904;9.192;2022-11-25T03:18:26;3.00;99.90
16732;DHT22;8484;50.904;9.192;2022-11-25T03:21:11;3.20;99.90
16732;DHT22;8484;50.904;9.192;2022-11-25T03:23:56;3.40;99.90
16732;DHT22;8484;50.904;9.192;2022-11-25T03:26:42;3.50;99.90
16732;DHT22;8484;50.904;9.192;2022-11-25T03:29:28;3.40;99.90
16732;DHT22;8484;50.904;9.192;2022-11-25T03:32:14;3.50;99.90
16732;DHT22;8484;50.904;9.192;2022-11-25T03:35:00;3.70;99.90
16732;DHT22;8484;50.904;9.192;2022-11-25T03:37:45;3.80;99.90
16732;DHT22;8484;50.904;9.192;2022-11-25T03:40:31;3.90;99.90
16732;DHT22;8484;50.904;9.192;2022-11-25T03:43:16;4.00;99.90
16732;DHT22;8484;50.904;9.192;2022-11-25T03:46:02;4.20;99.90
16732;DHT22;8484;50.904;9.192;2022-11-25T03:48:49;4.30;99.90
16732;DHT22;8484;50.904;9.192;2022-11-25T03:51:34;4.30;99.90
16732;DHT22;8484;50.904;9.192;2022-11-25T03:54:20;4.60;99.90
16732;DHT22;8484;50.904;9.192;2022-11-25T03:57:05;4.40;99.90
16732;DHT22;8484;50.904;9.192;2022-11-25T03:59:50;4.40;99.90
16732;DHT22;8484;50.904;9.192;2022-11-25T04:02:36;4.50;99.90
16732;DHT22;8484;50.904;9.192;2022-11-25T04:05:23;4.50;99.90
16732;DHT22;8484;50.904;9.192;2022-11-25T04:08:08;4.40;99.90
16732;DHT22;8484;50.904;9.192;2022-11-25T04:10:54;4.30;99.90
16732;DHT22;8484;50.904;9.192;2022-11-25T04:13:39;3.90;99.90
16732;DHT22;8484;50.904;9.192;2022-11-25T04:16:25;3.80;99.90
16732;DHT22;8484;50.904;9.192;2022-11-25T04:19:10;3.90;99.90
16732;DHT22;8484;50.904;9.192;2022-11-25T04:21:57;3.80;99.90
16732;DHT22;8484;50.904;9.192;2022-11-25T04:24:44;3.80;99.90
16732;DHT22;8484;50.904;9.192;2022-11-25T04:27:30;4.10;99.90
16732;DHT22;8484;50.904;9.192;2022-11-25T04:30:15;4.20;99.90
16732;DHT22;8484;50.904;9.192;2022-11-25T04:33:01;4.30;99.90
16732;DHT22;8484;50.904;9.192;2022-11-25T04:35:46;4.10;99.90
16732;DHT22;8484;50.904;9.192;2022-11-25T04:38:34;4.10;99.90
16732;DHT22;8484;50.904;9.192;2022-11-25T04:41:19;4.30;99.90
16732;DHT22;8484;50.904;9.192;2022-11-25T04:44:05;4.40;99.90
16732;DHT22;8484;50.904;9.192;2022-11-25T04:46:50;4.40;99.90
16732;DHT22;8484;50.904;9.192;2022-11-25T04:49:35;4.30;99.90
16732;DHT22;8484;50.904;9.192;2022-11-25T04:52:21;4.40;99.90
16732;DHT22;8484;50.904;9.192;2022-11-25T04:55:08;4.60;99.90
16732;DHT22;8484;50.904;9.192;2022-11-25T04:57:54;4.70;99.90
16732;DHT22;8484;50.904;9.192;2022-11-25T05:00:40;4.70;99.90
16732;DHT22;8484;50.904;9.192;2022-11-25T05:03:24;4.60;99.90
16732;DHT22;8484;50.904;9.192;2022-11-25T05:06:10;4.60;99.90
16732;DHT22;8484;50.904;9.192;2022-11-25T05:08:55;4.50;99.90
16732;DHT22;8484;50.904;9.192;2022-11-25T05:11:42;4.40;99.90
16732;DHT22;8484;50.904;9.192;2022-11-25T05:14:28;4.40;99.90
16732;DHT22;8484;50.904;9.192;2022-11-25T05:17:15;4.40;99.90
16732;DHT22;8484;50.904;9.192;2022-11-25T05:20:03;4.40;99.90
16732;DHT22;8484;50.904;9.192;2022-11-25T05:22:49;4.20;99.90
16732;DHT22;8484;50.904;9.192;2022-11-25T05:25:34;4.20;99.90
16732;DHT22;8484;50.904;9.192;2022-11-25T05:28:21;4.10;99.90
16732;DHT22;8484;50.904;9.192;2022-11-25T05:31:06;4.20;99.90
16732;DHT22;8484;50.904;9.192;2022-11-25T05:33:52;4.10;99.90
16732;DHT22;8484;50.904;9.192;2022-11-25T05:36:37;4.10;99.90
16732;DHT22;8484;50.904;9.192;2022-11-25T05:39:23;4.10;99.90
16732;DHT22;8484;50.904;9.192;2022-11-25T05:42:09;4.00;99.90
16732;DHT22;8484;50.904;9.192;2022-11-25T05:44:55;4.30;99.90
16732;DHT22;8484;50.904;9.192;2022-11-25T05:47:41;3.80;99.90
16732;DHT22;8484;50.904;9.192;2022-11-25T05:50:26;4.00;99.90
16732;DHT22;8484;50.904;9.192;2022-11-25T05:53:12;4.20;99.90
16732;DHT22;8484;50.904;9.192;2022-11-25T05:56:01;4.40;99.90
16732;DHT22;8484;50.904;9.192;2022-11-25T05:58:47;4.20;99.90
16732;DHT22;8484;50.904;9.192;2022-11-25T06:01:34;4.20;99.90
16732;DHT22;8484;50.904;9.192;2022-11-25T06:04:19;4.30;99.90
16732;DHT22;8484;50.904;9.192;2022-11-25T06:07:05;4.40;99.90
16732;DHT22;8484;50.904;9.192;2022-11-25T06:09:50;4.50;99.90
16732;DHT22;8484;50.904;9.192;2022-11-25T06:12:36;4.60;99.90
16732;DHT22;8484;50.904;9.192;2022-11-25T06:15:22;4.60;99.90
16732;DHT22;8484;50.904;9.192;2022-11-25T06:18:09;4.60;99.90
16732;DHT22;8484;50.904;9.192;2022-11-25T06:20:55;4.70;99.90
16732;DHT22;8484;50.904;9.192;2022-11-25T06:23:41;4.60;99.90
16732;DHT22;8484;50.904;9.192;2022-11-25T06:26:28;4.60;99.90
16732;DHT22;8484;50.904;9.192;2022-11-25T06:29:13;4.60;99.90
16732;DHT22;8484;50.904;9.192;2022-11-25T06:31:59;4.50;99.90
16732;DHT22;8484;50.904;9.192;2022-11-25T06:34:46;4.40;99.90
16732;DHT22;8484;50.904;9.192;2022-11-25T06:37:32;4.50;99.90
16732;DHT22;8484;50.904;9.192;2022-11-25T06:40:17;4.40;99.90
16732;DHT22;8484;50.904;9.192;2022-11-25T06:43:03;4.50;99.90
16732;DHT22;8484;50.904;9.192;2022-11-25T06:45:49;4.50;99.90
16732;DHT22;8484;50.904;9.192;2022-11-25T06:48:35;4.50;99.90
16732;DHT22;8484;50.904;9.192;2022-11-25T06:51:22;4.50;99.90
16732;DHT22;8484;50.904;9.192;2022-11-25T06:54:07;4.60;99.90
16732;DHT22;8484;50.904;9.192;2022-11-25T06:56:53;4.60;99.90
16732;DHT22;8484;50.904;9.192;2022-11-25T06:59:38;4.70;99.90
16732;DHT22;8484;50.904;9.192;2022-11-25T07:02:24;4.70;99.90
16732;DHT22;8484;50.904;9.192;2022-11-25T07:05:09;4.70;99.90
16732;DHT22;8484;50.904;9.192;2022-11-25T07:07:56;4.80;99.90
16732;DHT22;8484;50.904;9.192;2022-11-25T07:10:41;4.90;99.90
16732;DHT22;8484;50.904;9.192;2022-11-25T07:13:27;4.90;99.90
16732;DHT22;8484;50.904;9.192;2022-11-25T07:16:14;4.90;99.90
16732;DHT22;8484;50.904;9.192;2022-11-25T07:19:00;4.90;99.90
16732;DHT22;8484;50.904;9.192;2022-11-25T07:21:46;4.90;99.90
16732;DHT22;8484;50.904;9.192;2022-11-25T07:24:32;4.80;99.90
16732;DHT22;8484;50.904;9.192;2022-11-25T07:27:18;4.90;99.90
16732;DHT22;8484;50.904;9.192;2022-11-25T07:30:05;5.00;99.90
16732;DHT22;8484;50.904;9.192;2022-11-25T07:32:50;5.00;99.90
16732;DHT22;8484;50.904;9.192;2022-11-25T07:35:36;5.90;99.90
16732;DHT22;8484;50.904;9.192;2022-11-25T07:38:21;5.80;99.90
16732;DHT22;8484;50.904;9.192;2022-11-25T07:41:09;5.20;99.90
16732;DHT22;8484;50.904;9.192;2022-11-25T07:43:57;5.20;99.90
16732;DHT22;8484;50.904;9.192;2022-11-25T07:46:43;5.20;99.90
16732;DHT22;8484;50.904;9.192;2022-11-25T07:49:30;5.30;99.90
16732;DHT22;8484;50.904;9.192;2022-11-25T07:52:16;5.30;99.90
16732;DHT22;8484;50.904;9.192;2022-11-25T07:55:03;6.40;99.90
16732;DHT22;8484;50.904;9.192;2022-11-25T07:57:51;5.20;99.90
16732;DHT22;8484;50.904;9.192;2022-11-25T08:00:36;5.30;99.90
16732;DHT22;8484;50.904;9.192;2022-11-25T08:03:22;5.30;99.90
16732;DHT22;8484;50.904;9.192;2022-11-25T08:06:09;5.30;99.90
16732;DHT22;8484;50.904;9.192;2022-11-25T08:08:56;5.30;99.90
16732;DHT22;8484;50.904;9.192;2022-11-25T08:11:41;5.30;99.90
16732;DHT22;8484;50.904;9.192;2022-11-25T08:14:28;5.40;99.90
16732;DHT22;8484;50.904;9.192;2022-11-25T08:17:14;5.40;99.90
16732;DHT22;8484;50.904;9.192;2022-11-25T08:19:59;5.50;99.90
16732;DHT22;8484;50.904;9.192;2022-11-25T08:22:45;5.50;99.90
16732;DHT22;8484;50.904;9.192;2022-11-25T08:25:30;5.40;99.90
16732;DHT22;8484;50.904;9.192;2022-11-25T08:28:16;5.50;99.90
16732;DHT22;8484;50.904;9.192;2022-11-25T08:31:04;5.50;99.90
16732;DHT22;8484;50.904;9.192;2022-11-25T08:33:50;5.50;99.90
16732;DHT22;8484;50.904;9.192;2022-11-25T08:36:35;5.50;99.90
16732;DHT22;8484;50.904;9.192;2022-11-25T08:39:21;5.50;99.90
16732;DHT22;8484;50.904;9.192;2022-11-25T08:42:07;5.50;99.90
16732;DHT22;8484;50.904;9.192;2022-11-25T08:44:52;5.60;99.90
16732;DHT22;8484;50.904;9.192;2022-11-25T08:47:39;5.60;99.90
16732;DHT22;8484;50.904;9.192;2022-11-25T08:50:25;5.60;99.90
16732;DHT22;8484;50.904;9.192;2022-11-25T08:53:11;5.60;99.90
16732;DHT22;8484;50.904;9.192;2022-11-25T08:55:56;5.70;99.90
16732;DHT22;8484;50.904;9.192;2022-11-25T08:58:42;5.70;99.90
16732;DHT22;8484;50.904;9.192;2022-11-25T09:01:28;5.80;99.90
16732;DHT22;8484;50.904;9.192;2022-11-25T09:04:14;5.80;99.90
16732;DHT22;8484;50.904;9.192;2022-11-25T09:07:00;5.80;99.90
16732;DHT22;8484;50.904;9.192;2022-11-25T09:09:45;5.80;99.90
16732;DHT22;8484;50.904;9.192;2022-11-25T09:12:31;5.80;99.90
16732;DHT22;8484;50.904;9.192;2022-11-25T09:15:16;6.60;99.90
16732;DHT22;8484;50.904;9.192;2022-11-25T09:18:04;5.90;99.90
16732;DHT22;8484;50.904;9.192;2022-11-25T09:20:51;6.00;99.90
16732;DHT22;8484;50.904;9.192;2022-11-25T09:23:37;6.10;99.90
16732;DHT22;8484;50.904;9.192;2022-11-25T09:26:24;6.30;99.90
16732;DHT22;8484;50.904;9.192;2022-11-25T09:29:11;6.50;99.90
16732;DHT22;8484;50.904;9.192;2022-11-25T09:31:57;6.50;99.90
16732;DHT22;8484;50.904;9.192;2022-11-25T09:34:42;6.80;99.90
16732;DHT22;8484;50.904;9.192;2022-11-25T09:37:29;6.50;99.90
16732;DHT22;8484;50.904;9.192;2022-11-25T09:40:18;6.50;99.90
16732;DHT22;8484;50.904;9.192;2022-11-25T09:43:17;6.50;99.90
16732;DHT22;8484;50.904;9.192;2022-11-25T09:46:36;6.80;99.90
16732;DHT22;8484;50.904;9.192;2022-11-25T09:49:34;7.00;99.90
16732;DHT22;8484;50.904;9.192;2022-11-25T09:52:32;7.00;99.90
16732;DHT22;8484;50.904;9.192;2022-11-25T09:55:22;6.90;99.90
16732;DHT22;8484;50.904;9.192;2022-11-25T09:58:17;7.00;99.90
16732;DHT22;8484;50.904;9.192;2022-11-25T10:01:06;7.00;99.90
16732;DHT22;8484;50.904;9.192;2022-11-25T10:03:57;7.10;99.90
16732;DHT22;8484;50.904;9.192;2022-11-25T10:06:49;7.10;99.90
16732;DHT22;8484;50.904;9.192;2022-11-25T10:09:37;7.10;99.90
16732;DHT22;8484;50.904;9.192;2022-11-25T10:12:25;7.10;99.90
16732;DHT22;8484;50.904;9.192;2022-11-25T10:15:16;7.10;99.90
16732;DHT22;8484;50.904;9.192;2022-11-25T10:18:18;7.00;99.90
16732;DHT22;8484;50.904;9.192;2022-11-25T10:21:07;7.00;99.90
16732;DHT22;8484;50.904;9.192;2022-11-25T10:23:54;6.90;99.90
16732;DHT22;8484;50.904;9.192;2022-11-25T10:26:42;7.00;99.90
16732;DHT22;8484;50.904;9.192;2022-11-25T10:29:29;7.00;99.90
16732;DHT22;8484;50.904;9.192;2022-11-25T10:32:21;7.10;99.90
16732;DHT22;8484;50.904;9.192;2022-11-25T10:35:16;7.00;99.90
16732;DHT22;8484;50.904;9.192;2022-11-25T10:38:04;7.00;99.90
16732;DHT22;8484;50.904;9.192;2022-11-25T10:40:53;7.00;99.90
16732;DHT22;8484;50.904;9.192;2022-11-25T10:43:41;7.00;99.90
16732;DHT22;8484;50.904;9.192;2022-11-25T10:46:34;7.10;99.90
16732;DHT22;8484;50.904;9.192;2022-11-25T10:49:29;7.00;99.90
16732;DHT22;8484;50.904;9.192;2022-11-25T10:52:20;6.90;99.90
16732;DHT22;8484;50.904;9.192;2022-11-25T10:55:10;6.90;99.90
16732;DHT22;8484;50.904;9.192;2022-11-25T10:57:55;7.00;99.90
16732;DHT22;8484;50.904;9.192;2022-11-25T11:00:42;6.90;99.90
16732;DHT22;8484;50.904;9.192;2022-11-25T11:03:28;7.30;99.90
16732;DHT22;8484;50.904;9.192;2022-11-25T11:06:32;7.00;99.90
16732;DHT22;8484;50.904;9.192;2022-11-25T11:09:32;7.10;99.90
16732;DHT22;8484;50.904;9.192;2022-11-25T11:12:21;7.10;99.90
16732;DHT22;8484;50.904;9.192;2022-11-25T11:15:19;7.10;99.90
16732;DHT22;8484;50.904;9.192;2022-11-25T11:18:24;7.40;99.90
16732;DHT22;8484;50.904;9.192;2022-11-25T11:21:21;7.00;99.90
16732;DHT22;8484;50.904;9.192;2022-11-25T11:24:23;7.00;99.90
16732;DHT22;8484;50.904;9.192;2022-11-25T11:27:18;7.50;99.90
16732;DHT22;8484;50.904;9.192;2022-11-25T11:30:09;7.00;99.90
16732;DHT22;8484;50.904;9.192;2022-11-25T11:32:58;6.90;99.90
16732;DHT22;8484;50.904;9.192;2022-11-25T11:35:53;8.00;99.90
16732;DHT22;8484;50.904;9.192;2022-11-25T11:38:45;6.90;99.90
16732;DHT22;8484;50.904;9.192;2022-11-25T11:41:38;6.90;99.90
16732;DHT22;8484;50.904;9.192;2022-11-25T11:44:29;7.10;99.90
16732;DHT22;8484;50.904;9.192;2022-11-25T11:47:24;7.30;99.90
16732;DHT22;8484;50.904;9.192;2022-11-25T11:50:28;7.90;99.90
16732;DHT22;8484;50.904;9.192;2022-11-25T11:53:21;7.10;99.90
16732;DHT22;8484;50.904;9.192;2022-11-25T11:56:12;7.10;99.90
16732;DHT22;8484;50.904;9.192;2022-11-25T11:59:26;7.10;99.90
16732;DHT22;8484;50.904;9.192;2022-11-25T12:02:28;7.00;99.90
16732;DHT22;8484;50.904;9.192;2022-11-25T12:05:18;7.00;99.90
16732;DHT22;8484;50.904;9.192;2022-11-25T12:08:10;7.10;99.90
16732;DHT22;8484;50.904;9.192;2022-11-25T12:11:02;7.30;99.90
16732;DHT22;8484;50.904;9.192;2022-11-25T12:13:56;7.40;99.90
16732;DHT22;8484;50.904;9.192;2022-11-25T12:16:45;7.20;99.90
16732;DHT22;8484;50.904;9.192;2022-11-25T12:19:36;7.10;99.90
16732;DHT22;8484;50.904;9.192;2022-11-25T12:22:27;7.20;99.90
16732;DHT22;8484;50.904;9.192;2022-11-25T12:25:18;8.10;99.90
16732;DHT22;8484;50.904;9.192;2022-11-25T12:28:10;8.20;99.90
16732;DHT22;8484;50.904;9.192;2022-11-25T12:31:05;8.90;99.90
16732;DHT22;8484;50.904;9.192;2022-11-25T12:34:02;10.10;99.90
16732;DHT22;8484;50.904;9.192;2022-11-25T12:36:49;10.30;99.90
16732;DHT22;8484;50.904;9.192;2022-11-25T12:39:38;8.80;99.90
16732;DHT22;8484;50.904;9.192;2022-11-25T12:42:27;8.10;99.90
16732;DHT22;8484;50.904;9.192;2022-11-25T12:45:19;7.90;99.90
16732;DHT22;8484;50.904;9.192;2022-11-25T12:48:08;8.00;99.90
16732;DHT22;8484;50.904;9.192;2022-11-25T12:51:01;7.90;99.90
16732;DHT22;8484;50.904;9.192;2022-11-25T12:53:58;7.60;99.90
16732;DHT22;8484;50.904;9.192;2022-11-25T12:57:07;7.60;99.90
16732;DHT22;8484;50.904;9.192;2022-11-25T13:00:09;7.50;99.90
16732;DHT22;8484;50.904;9.192;2022-11-25T13:06:27;7.60;99.90
16732;DHT22;8484;50.904;9.192;2022-11-25T13:09:37;7.60;99.90
16732;DHT22;8484;50.904;9.192;2022-11-25T13:12:36;7.40;99.90
16732;DHT22;8484;50.904;9.192;2022-11-25T13:15:26;7.60;99.90
16732;DHT22;8484;50.904;9.192;2022-11-25T13:18:16;7.40;99.90
16732;DHT22;8484;50.904;9.192;2022-11-25T13:21:07;7.40;99.90
16732;DHT22;8484;50.904;9.192;2022-11-25T13:23:55;7.30;99.90
16732;DHT22;8484;50.904;9.192;2022-11-25T13:26:48;7.40;99.90
16732;DHT22;8484;50.904;9.192;2022-11-25T13:29:58;7.40;99.90
16732;DHT22;8484;50.904;9.192;2022-11-25T13:32:45;8.20;99.90
16732;DHT22;8484;50.904;9.192;2022-11-25T13:35:34;7.40;99.90
16732;DHT22;8484;50.904;9.192;2022-11-25T13:41:57;7.40;99.90
16732;DHT22;8484;50.904;9.192;2022-11-25T13:44:49;7.50;99.90
16732;DHT22;8484;50.904;9.192;2022-11-25T13:47:37;7.40;99.90
16732;DHT22;8484;50.904;9.192;2022-11-25T13:50:24;7.50;99.90
16732;DHT22;8484;50.904;9.192;2022-11-25T13:53:20;7.70;99.90
16732;DHT22;8484;50.904;9.192;2022-11-25T13:56:25;7.40;99.90
16732;DHT22;8484;50.904;9.192;2022-11-25T13:59:19;7.40;99.90
16732;DHT22;8484;50.904;9.192;2022-11-25T14:02:33;7.40;99.90
16732;DHT22;8484;50.904;9.192;2022-11-25T14:05:40;7.50;99.90
16732;DHT22;8484;50.904;9.192;2022-11-25T14:08:36;7.60;99.90
16732;DHT22;8484;50.904;9.192;2022-11-25T14:11:42;8.30;99.90
16732;DHT22;8484;50.904;9.192;2022-11-25T14:21:05;7.60;99.90
16732;DHT22;8484;50.904;9.192;2022-11-25T14:24:14;7.60;99.90
16732;DHT22;8484;50.904;9.192;2022-11-25T14:27:04;8.50;99.90
16732;DHT22;8484;50.904;9.192;2022-11-25T14:29:59;7.60;99.90
16732;DHT22;8484;50.904;9.192;2022-11-25T14:32:50;7.60;99.90
16732;DHT22;8484;50.904;9.192;2022-11-25T14:35:41;7.60;99.90
16732;DHT22;8484;50.904;9.192;2022-11-25T14:38:36;8.20;99.90
16732;DHT22;8484;50.904;9.192;2022-11-25T14:41:28;7.60;99.90
16732;DHT22;8484;50.904;9.192;2022-11-25T14:44:18;7.40;99.90
16732;DHT22;8484;50.904;9.192;2022-11-25T14:47:05;8.10;99.90
16732;DHT22;8484;50.904;9.192;2022-11-25T14:49:52;7.40;99.90
16732;DHT22;8484;50.904;9.192;2022-11-25T14:52:39;7.40;99.90
16732;DHT22;8484;50.904;9.192;2022-11-25T14:55:29;8.00;99.90
16732;DHT22;8484;50.904;9.192;2022-11-25T14:58:15;7.40;99.90
16732;DHT22;8484;50.904;9.192;2022-11-25T15:01:06;7.30;99.90
16732;DHT22;8484;50.904;9.192;2022-11-25T15:04:00;7.30;99.90
16732;DHT22;8484;50.904;9.192;2022-11-25T15:06:48;7.10;99.90
16732;DHT22;8484;50.904;9.192;2022-11-25T15:09:40;7.00;99.90
16732;DHT22;8484;50.904;9.192;2022-11-25T15:12:32;7.80;99.90
16732;DHT22;8484;50.904;9.192;2022-11-25T15:15:19;6.90;99.90
16732;DHT22;8484;50.904;9.192;2022-11-25T15:18:05;6.90;99.90
16732;DHT22;8484;50.904;9.192;2022-11-25T15:20:55;7.00;99.90
16732;DHT22;8484;50.904;9.192;2022-11-25T15:23:42;6.90;99.90
16732;DHT22;8484;50.904;9.192;2022-11-25T15:26:29;6.80;99.90
16732;DHT22;8484;50.904;9.192;2022-11-25T15:29:15;6.80;99.90
16732;DHT22;8484;50.904;9.192;2022-11-25T15:32:01;6.80;99.90
16732;DHT22;8484;50.904;9.192;2022-11-25T15:34:48;6.80;99.90
16732;DHT22;8484;50.904;9.192;2022-11-25T15:37:36;6.80;99.90
16732;DHT22;8484;50.904;9.192;2022-11-25T15:40:31;6.80;99.90
16732;DHT22;8484;50.904;9.192;2022-11-25T15:43:22;6.20;99.90
16732;DHT22;8484;50.904;9.192;2022-11-25T15:46:08;6.90;99.90
16732;DHT22;8484;50.904;9.192;2022-11-25T15:48:58;6.90;99.90
16732;DHT22;8484;50.904;9.192;2022-11-25T15:51:50;7.70;99.90
16732;DHT22;8484;50.904;9.192;2022-11-25T15:54:38;6.70;99.90
16732;DHT22;8484;50.904;9.192;2022-11-25T15:57:29;7.00;99.90
16732;DHT22;8484;50.904;9.192;2022-11-25T16:00:18;6.30;99.90
16732;DHT22;8484;50.904;9.192;2022-11-25T16:03:17;6.20;99.90
16732;DHT22;8484;50.904;9.192;2022-11-25T16:06:19;6.20;99.90
16732;DHT22;8484;50.904;9.192;2022-11-25T16:09:19;6.20;99.90
16732;DHT22;8484;50.904;9.192;2022-11-25T16:12:05;6.20;99.90
16732;DHT22;8484;50.904;9.192;2022-11-25T16:14:53;6.10;99.90
16732;DHT22;8484;50.904;9.192;2022-11-25T16:17:38;6.00;99.90
16732;DHT22;8484;50.904;9.192;2022-11-25T16:20:24;6.10;99.90
16732;DHT22;8484;50.904;9.192;2022-11-25T16:23:13;6.00;99.90
16732;DHT22;8484;50.904;9.192;2022-11-25T16:26:02;6.10;99.90
16732;DHT22;8484;50.904;9.192;2022-11-25T16:28:53;5.90;99.90
16732;DHT22;8484;50.904;9.192;2022-11-25T16:31:40;5.90;99.90
16732;DHT22;8484;50.904;9.192;2022-11-25T16:34:26;5.90;99.90
16732;DHT22;8484;50.904;9.192;2022-11-25T16:37:13;5.90;99.90
16732;DHT22;8484;50.904;9.192;2022-11-25T16:39:59;5.90;99.90
16732;DHT22;8484;50.904;9.192;2022-11-25T16:42:46;5.90;99.90
16732;DHT22;8484;50.904;9.192;2022-11-25T16:45:32;6.40;99.90
16732;DHT22;8484;50.904;9.192;2022-11-25T16:48:19;6.10;99.90
16732;DHT22;8484;50.904;9.192;2022-11-25T16:51:08;6.30;99.90
16732;DHT22;8484;50.904;9.192;2022-11-25T16:53:57;6.40;99.90
16732;DHT22;8484;50.904;9.192;2022-11-25T16:56:45;6.50;99.90
16732;DHT22;8484;50.904;9.192;2022-11-25T16:59:34;6.90;99.90
16732;DHT22;8484;50.904;9.192;2022-11-25T17:02:20;7.10;99.90
16732;DHT22;8484;50.904;9.192;2022-11-25T17:05:15;7.30;99.90
16732;DHT22;8484;50.904;9.192;2022-11-25T17:08:01;6.70;99.90
16732;DHT22;8484;50.904;9.192;2022-11-25T17:10:47;6.70;99.90
16732;DHT22;8484;50.904;9.192;2022-11-25T17:13:36;6.70;99.90
16732;DHT22;8484;50.904;9.192;2022-11-25T17:16:26;6.70;99.90
16732;DHT22;8484;50.904;9.192;2022-11-25T17:19:14;6.60;99.90
16732;DHT22;8484;50.904;9.192;2022-11-25T17:22:00;6.60;99.90
16732;DHT22;8484;50.904;9.192;2022-11-25T17:24:46;6.70;99.90
16732;DHT22;8484;50.904;9.192;2022-11-25T17:27:32;6.60;99.90
16732;DHT22;8484;50.904;9.192;2022-11-25T17:30:20;6.60;99.90
16732;DHT22;8484;50.904;9.192;2022-11-25T17:33:12;6.50;99.90
16732;DHT22;8484;50.904;9.192;2022-11-25T17:35:58;6.50;99.90
16732;DHT22;8484;50.904;9.192;2022-11-25T17:38:43;6.40;99.90
16732;DHT22;8484;50.904;9.192;2022-11-25T17:41:29;6.40;99.90
16732;DHT22;8484;50.904;9.192;2022-11-25T17:44:21;6.40;99.90
16732;DHT22;8484;50.904;9.192;2022-11-25T17:47:11;6.30;99.90
16732;DHT22;8484;50.904;9.192;2022-11-25T17:49:56;6.30;99.90
16732;DHT22;8484;50.904;9.192;2022-11-25T17:52:42;6.40;99.90
16732;DHT22;8484;50.904;9.192;2022-11-25T17:55:27;6.30;99.90
16732;DHT22;8484;50.904;9.192;2022-11-25T17:58:14;6.30;99.90
16732;DHT22;8484;50.904;9.192;2022-11-25T18:01:02;6.30;99.90
16732;DHT22;8484;50.904;9.192;2022-11-25T18:03:49;6.30;99.90
16732;DHT22;8484;50.904;9.192;2022-11-25T18:06:36;6.30;99.90
16732;DHT22;8484;50.904;9.192;2022-11-25T18:09:21;6.30;99.90
16732;DHT22;8484;50.904;9.192;2022-11-25T18:12:09;6.30;99.90
16732;DHT22;8484;50.904;9.192;2022-11-25T18:14:57;6.30;99.90
16732;DHT22;8484;50.904;9.192;2022-11-25T18:17:42;6.20;99.90
16732;DHT22;8484;50.904;9.192;2022-11-25T18:20:29;6.20;99.90
16732;DHT22;8484;50.904;9.192;2022-11-25T18:23:15;6.20;99.90
16732;DHT22;8484;50.904;9.192;2022-11-25T18:26:01;6.20;99.90
16732;DHT22;8484;50.904;9.192;2022-11-25T18:28:47;6.20;99.90
16732;DHT22;8484;50.904;9.192;2022-11-25T18:31:32;6.20;99.90
16732;DHT22;8484;50.904;9.192;2022-11-25T18:34:18;6.20;99.90